createdAt,value
2022-11-17T00:00:35.705Z,10.50
2022-11-17T00:03:03.724Z,8.38
2022-11-17T00:05:31.751Z,11.50
2022-11-17T00:07:59.775Z,6.57
2022-11-17T00:10:29.164Z,6.65
2022-11-17T00:13:14.598Z,9.45
2022-11-17T00:15:44.968Z,9.50
2022-11-17T00:18:30.352Z,10.13
2022-11-17T00:21:16.222Z,7.88
2022-11-17T00:23:50.346Z,10.63
2022-11-17T00:26:21.960Z,8.50
2022-11-17T00:28:53.306Z,7.05
2022-11-17T00:31:39.637Z,6.47
2022-11-17T00:34:08.456Z,8.18
2022-11-17T00:36:39.541Z,5.38
2022-11-17T00:39:08.336Z,8.30
2022-11-17T00:41:37.726Z,6.85
2022-11-17T00:44:06.362Z,6.55
2022-11-17T00:46:34.529Z,8.13
2022-11-17T00:49:02.544Z,7.97
2022-11-17T00:51:31.056Z,9.25
2022-11-17T00:53:59.104Z,4.38
2022-11-17T00:56:27.459Z,6.47
2022-11-17T00:58:57.483Z,7.68
2022-11-17T01:01:25.715Z,5.82
2022-11-17T01:04:02.682Z,7.80
2022-11-17T01:06:32.832Z,8.68
2022-11-17T01:09:01.344Z,6.60
2022-11-17T01:11:29.787Z,4.28
2022-11-17T01:14:01.291Z,7.35
2022-11-17T01:16:30.898Z,5.82
2022-11-17T01:19:01.469Z,7.57
2022-11-17T01:21:31.507Z,7.45
2022-11-17T01:24:01.171Z,7.43
2022-11-17T01:26:31.258Z,6.80
2022-11-17T01:29:01.793Z,4.72
2022-11-17T01:31:32.161Z,7.75
2022-11-17T01:34:00.255Z,6.65
2022-11-17T01:36:30.980Z,5.57
2022-11-17T01:38:59.006Z,3.78
2022-11-17T01:41:28.879Z,4.45
2022-11-17T01:43:58.697Z,6.18
2022-11-17T01:46:34.017Z,4.70
2022-11-17T01:49:08.159Z,6.15
2022-11-17T01:51:40.902Z,6.07
2022-11-17T01:54:12.024Z,4.50
2022-11-17T01:56:44.543Z,5.18
2022-11-17T01:59:18.053Z,4.32
2022-11-17T02:01:56.452Z,6.00
2022-11-17T02:04:26.942Z,5.22
2022-11-17T02:07:01.789Z,4.43
2022-11-17T02:09:30.409Z,4.07
2022-11-17T02:11:59.793Z,6.00
2022-11-17T02:14:27.966Z,5.72
2022-11-17T02:17:00.998Z,7.82
2022-11-17T02:19:36.757Z,4.20
2022-11-17T02:22:33.636Z,3.38
2022-11-17T02:25:26.987Z,3.08
2022-11-17T02:28:12.409Z,9.73
2022-11-17T02:30:47.712Z,4.68
2022-11-17T02:33:25.037Z,4.63
2022-11-17T02:36:02.225Z,4.55
2022-11-17T02:38:35.627Z,6.30
2022-11-17T02:41:10.179Z,4.38
2022-11-17T02:44:12.080Z,7.25
2022-11-17T02:46:46.452Z,4.45
2022-11-17T02:49:20.835Z,3.28
2022-11-17T02:52:09.288Z,6.43
2022-11-17T02:54:37.280Z,4.32
2022-11-17T02:57:05.420Z,4.20
2022-11-17T02:59:37.471Z,3.92
2022-11-17T03:02:30.312Z,2.63
2022-11-17T03:05:10.308Z,3.53
2022-11-17T03:07:52.528Z,4.35
2022-11-17T03:10:23.543Z,4.13
2022-11-17T03:12:56.357Z,4.30
2022-11-17T03:15:33.409Z,3.65
2022-11-17T03:18:08.371Z,4.47
2022-11-17T03:20:42.924Z,5.45
2022-11-17T03:23:14.835Z,6.78
2022-11-17T03:25:46.888Z,2.35
2022-11-17T03:28:19.645Z,3.35
2022-11-17T03:30:50.998Z,3.55
2022-11-17T03:33:23.636Z,2.65
2022-11-17T03:35:58.224Z,1.85
2022-11-17T03:38:29.788Z,1.70
2022-11-17T03:41:00.451Z,2.13
2022-11-17T03:43:31.416Z,3.00
2022-11-17T03:46:06.767Z,3.83
2022-11-17T03:48:39.053Z,3.58
2022-11-17T03:51:10.889Z,1.90
2022-11-17T03:53:39.179Z,1.90
2022-11-17T03:56:23.068Z,3.22
2022-11-17T03:58:56.442Z,2.85
2022-11-17T04:01:28.300Z,2.60
2022-11-17T04:03:56.362Z,2.28
2022-11-17T04:06:24.522Z,2.38
2022-11-17T04:08:52.747Z,2.72
2022-11-17T04:11:38.220Z,2.33
2022-11-17T04:14:23.720Z,2.63
2022-11-17T04:16:53.152Z,4.40
2022-11-17T04:19:21.238Z,1.83
2022-11-17T04:21:49.252Z,2.15
2022-11-17T04:24:18.269Z,4.07
2022-11-17T04:27:03.765Z,2.83
2022-11-17T04:29:32.201Z,5.28
2022-11-17T04:32:01.582Z,3.05
2022-11-17T04:34:29.651Z,1.50
2022-11-17T04:36:57.680Z,2.05
2022-11-17T04:39:25.722Z,2.70
2022-11-17T04:41:57.298Z,2.88
2022-11-17T04:44:26.703Z,6.00
2022-11-17T04:46:55.212Z,4.53
2022-11-17T04:49:26.206Z,4.28
2022-11-17T04:51:55.208Z,2.78
2022-11-17T04:54:25.492Z,5.15
2022-11-17T04:56:54.413Z,2.92
2022-11-17T04:59:22.505Z,2.25
2022-11-17T05:01:50.990Z,2.97
2022-11-17T05:04:35.476Z,6.15
2022-11-17T05:07:05.307Z,5.60
2022-11-17T05:09:33.785Z,2.28
2022-11-17T05:12:19.509Z,2.33
2022-11-17T05:14:50.283Z,3.80
2022-11-17T05:17:18.020Z,4.05
2022-11-17T05:19:47.727Z,3.28
2022-11-17T05:22:36.872Z,4.05
2022-11-17T05:25:06.096Z,4.57
2022-11-17T05:27:34.711Z,2.60
2022-11-17T05:30:02.783Z,3.45
2022-11-17T05:32:31.051Z,5.18
2022-11-17T05:34:59.024Z,2.63
2022-11-17T05:37:28.469Z,2.55
2022-11-17T05:39:56.546Z,2.35
2022-11-17T05:42:24.595Z,3.70
2022-11-17T05:44:52.640Z,3.53
2022-11-17T05:47:20.670Z,4.43
2022-11-17T05:49:48.761Z,3.50
2022-11-17T05:52:16.757Z,4.97
2022-11-17T05:54:46.131Z,6.40
2022-11-17T05:57:17.910Z,7.97
2022-11-17T05:59:50.487Z,4.43
2022-11-17T06:02:23.557Z,5.28
2022-11-17T06:04:52.845Z,3.85
2022-11-17T06:07:21.349Z,3.95
2022-11-17T06:09:51.968Z,6.07
2022-11-17T06:12:20.025Z,3.13
2022-11-17T06:14:48.077Z,4.72
2022-11-17T06:17:22.398Z,4.13
2022-11-17T06:19:54.289Z,4.68
2022-11-17T06:22:22.327Z,6.00
2022-11-17T06:24:51.830Z,5.32
2022-11-17T06:27:20.196Z,5.80
2022-11-17T06:29:49.006Z,4.53
2022-11-17T06:32:19.211Z,2.60
2022-11-17T06:34:55.179Z,4.25
2022-11-17T06:37:24.912Z,3.25
2022-11-17T06:39:54.651Z,5.47
2022-11-17T06:42:43.806Z,5.63
2022-11-17T06:45:12.815Z,2.58
2022-11-17T06:47:41.214Z,4.97
2022-11-17T06:50:10.569Z,3.85
2022-11-17T06:52:39.637Z,3.60
2022-11-17T06:55:10.025Z,5.22
2022-11-17T06:57:38.268Z,3.35
2022-11-17T07:00:08.021Z,2.55
2022-11-17T07:02:37.159Z,2.20
2022-11-17T07:05:05.963Z,2.80
2022-11-17T07:07:34.234Z,5.97
2022-11-17T07:10:02.557Z,3.53
2022-11-17T07:12:32.241Z,2.15
2022-11-17T07:15:00.327Z,2.42
2022-11-17T07:17:29.488Z,1.70
2022-11-17T07:19:57.619Z,3.25
2022-11-17T07:22:25.636Z,2.30
2022-11-17T07:24:53.829Z,2.75
2022-11-17T07:27:21.988Z,1.98
2022-11-17T07:29:51.428Z,3.17
2022-11-17T07:32:19.501Z,2.10
2022-11-17T07:34:47.542Z,6.65
2022-11-17T07:37:15.749Z,2.85
2022-11-17T07:39:43.766Z,3.05
2022-11-17T07:42:11.793Z,1.85
2022-11-17T07:44:39.783Z,3.28
2022-11-17T07:47:09.136Z,2.33
2022-11-17T07:49:37.188Z,2.80
2022-11-17T07:52:05.490Z,2.50
2022-11-17T07:54:33.658Z,3.72
2022-11-17T07:57:01.678Z,1.60
2022-11-17T07:59:29.710Z,1.92
2022-11-17T08:01:58.042Z,2.38
2022-11-17T08:04:27.543Z,1.33
2022-11-17T08:06:55.535Z,7.07
2022-11-17T08:09:23.591Z,4.28
2022-11-17T08:11:52.087Z,1.70
2022-11-17T08:14:20.445Z,1.90
2022-11-17T08:16:48.449Z,2.45
2022-11-17T08:19:16.459Z,3.15
2022-11-17T08:21:45.827Z,2.08
2022-11-17T08:24:14.139Z,2.10
2022-11-17T08:26:42.173Z,1.35
2022-11-17T08:29:10.249Z,2.83
2022-11-17T08:31:38.715Z,2.72
2022-11-17T08:34:06.735Z,2.42
2022-11-17T08:36:34.746Z,2.88
2022-11-17T08:39:04.558Z,2.05
2022-11-17T08:41:32.861Z,2.65
2022-11-17T08:44:00.965Z,2.75
2022-11-17T08:46:29.100Z,2.25
2022-11-17T08:48:57.429Z,1.90
2022-11-17T08:51:27.084Z,3.45
2022-11-17T08:53:55.127Z,0.77
2022-11-17T08:56:24.517Z,1.42
2022-11-17T08:58:52.638Z,2.42
2022-11-17T09:01:20.807Z,1.25
2022-11-17T09:03:49.271Z,0.82
2022-11-17T09:06:19.981Z,2.70
2022-11-17T09:08:48.623Z,2.30
2022-11-17T09:11:17.238Z,1.73
2022-11-17T09:13:46.948Z,3.00
2022-11-17T09:16:16.078Z,1.00
2022-11-17T09:18:44.656Z,1.92
2022-11-17T09:21:15.157Z,1.42
2022-11-17T09:23:43.649Z,3.88
2022-11-17T09:26:13.600Z,2.08
2022-11-17T09:28:42.023Z,3.20
2022-11-17T09:31:13.478Z,1.27
2022-11-17T09:33:42.440Z,2.47
2022-11-17T09:36:11.450Z,4.28
2022-11-17T09:38:40.169Z,0.70
2022-11-17T09:41:21.971Z,5.32
2022-11-17T09:43:56.133Z,3.97
2022-11-17T09:46:33.258Z,8.20
2022-11-17T09:49:08.801Z,4.40
2022-11-17T09:51:40.996Z,2.42
2022-11-17T09:54:19.582Z,5.90
2022-11-17T09:56:48.504Z,4.22
2022-11-17T09:59:20.948Z,8.27
2022-11-17T10:01:50.394Z,3.03
2022-11-17T10:04:18.808Z,1.30
2022-11-17T10:06:50.290Z,5.43
2022-11-17T10:09:26.046Z,3.97
2022-11-17T10:11:59.820Z,9.15
2022-11-17T10:14:30.077Z,4.20
2022-11-17T10:17:00.192Z,4.05
2022-11-17T10:19:29.962Z,3.30
2022-11-17T10:22:17.377Z,2.33
2022-11-17T10:24:50.455Z,3.75
2022-11-17T10:27:23.300Z,2.28
2022-11-17T10:29:58.913Z,5.53
2022-11-17T10:32:30.590Z,2.53
2022-11-17T10:35:14.853Z,3.90
2022-11-17T10:37:45.631Z,2.63
2022-11-17T10:40:24.820Z,9.13
2022-11-17T10:43:21.276Z,4.03
2022-11-17T10:45:51.563Z,3.10
2022-11-17T10:48:27.714Z,4.75
2022-11-17T10:50:58.064Z,2.95
2022-11-17T10:53:30.128Z,5.43
2022-11-17T10:56:04.229Z,3.60
2022-11-17T10:58:34.119Z,3.45
2022-11-17T11:01:04.204Z,3.08
2022-11-17T11:03:36.155Z,3.53
2022-11-17T11:06:07.502Z,1.88
2022-11-17T11:08:42.694Z,4.50
2022-11-17T11:11:19.915Z,3.85
2022-11-17T11:13:54.147Z,3.15
2022-11-17T11:16:22.366Z,1.73
2022-11-17T11:18:53.766Z,3.90
2022-11-17T11:21:37.975Z,5.72
2022-11-17T11:24:16.428Z,2.42
2022-11-17T11:26:57.769Z,1.38
2022-11-17T11:29:39.130Z,3.55
2022-11-17T11:32:21.186Z,2.40
2022-11-17T11:35:19.555Z,3.83
2022-11-17T11:37:55.836Z,2.85
2022-11-17T11:40:30.487Z,3.40
2022-11-17T11:42:59.919Z,2.10
2022-11-17T11:45:43.634Z,1.27
2022-11-17T11:48:21.921Z,5.35
2022-11-17T11:50:58.198Z,2.55
2022-11-17T11:53:36.223Z,4.35
2022-11-17T11:56:20.870Z,4.70
2022-11-17T11:58:54.727Z,3.67
2022-11-17T12:01:24.439Z,1.48
2022-11-17T12:04:03.185Z,1.15
2022-11-17T12:06:43.518Z,2.67
2022-11-17T12:09:44.132Z,1.35
2022-11-17T12:12:16.563Z,1.67
2022-11-17T12:15:10.636Z,3.78
2022-11-17T12:17:39.413Z,5.72
2022-11-17T12:20:48.653Z,1.02
2022-11-17T12:23:27.782Z,1.45
2022-11-17T12:25:58.019Z,2.30
2022-11-17T12:28:32.753Z,2.55
2022-11-17T12:31:09.430Z,0.80
2022-11-17T12:34:11.519Z,2.97
2022-11-17T12:36:39.963Z,1.52
2022-11-17T12:39:53.238Z,4.00
2022-11-17T12:42:21.351Z,3.55
2022-11-17T12:45:11.789Z,2.42
2022-11-17T12:47:42.027Z,3.20
2022-11-17T12:50:36.603Z,2.03
2022-11-17T12:53:40.590Z,5.53
2022-11-17T12:56:33.585Z,3.38
2022-11-17T12:59:26.597Z,6.28
2022-11-17T13:02:05.520Z,3.65
2022-11-17T13:04:43.840Z,2.35
2022-11-17T13:07:20.876Z,0.77
2022-11-17T13:09:53.092Z,1.33
2022-11-17T13:12:27.841Z,5.13
2022-11-17T13:14:57.647Z,4.15
2022-11-17T13:17:29.453Z,4.28
2022-11-17T13:20:02.457Z,3.38
2022-11-17T13:22:30.715Z,3.95
2022-11-17T13:24:58.861Z,3.28
2022-11-17T13:27:29.924Z,3.65
2022-11-17T13:30:14.476Z,4.20
2022-11-17T13:32:42.882Z,4.22
2022-11-17T13:35:23.094Z,6.63
2022-11-17T13:38:06.519Z,5.05
2022-11-17T13:40:37.105Z,4.63
2022-11-17T13:43:08.373Z,8.02
2022-11-17T13:45:36.587Z,3.38
2022-11-17T13:48:05.096Z,5.20
2022-11-17T13:50:39.602Z,3.67
2022-11-17T13:53:23.538Z,4.47
2022-11-17T13:55:52.696Z,5.57
2022-11-17T13:58:31.980Z,2.03
2022-11-17T14:01:01.267Z,5.88
2022-11-17T14:03:35.090Z,3.42
2022-11-17T14:06:06.067Z,7.72
2022-11-17T14:08:35.543Z,5.05
2022-11-17T14:11:21.366Z,6.43
2022-11-17T14:13:52.806Z,5.57
2022-11-17T14:16:25.739Z,4.18
2022-11-17T14:19:00.292Z,7.18
2022-11-17T14:21:29.408Z,2.28
2022-11-17T14:24:11.988Z,6.93
2022-11-17T14:26:45.498Z,1.60
2022-11-17T14:29:15.215Z,6.10
2022-11-17T14:31:43.337Z,5.80
2022-11-17T14:34:11.525Z,2.22
2022-11-17T14:36:41.453Z,3.55
2022-11-17T14:39:15.742Z,6.00
2022-11-17T14:41:45.247Z,8.45
2022-11-17T14:44:15.066Z,4.38
2022-11-17T14:46:43.364Z,3.05
2022-11-17T14:49:12.044Z,4.72
2022-11-17T14:51:40.514Z,4.85
2022-11-17T14:54:08.566Z,4.13
2022-11-17T14:56:36.546Z,3.78
2022-11-17T14:59:04.590Z,2.78
2022-11-17T15:01:38.361Z,11.82
2022-11-17T15:04:34.425Z,3.47
2022-11-17T15:06:55.372Z,3.50
2022-11-17T15:09:23.833Z,3.88
2022-11-17T15:11:52.353Z,2.78
2022-11-17T15:14:20.384Z,1.70
2022-11-17T15:16:49.822Z,4.00
2022-11-17T15:19:17.900Z,5.93
2022-11-17T15:21:45.979Z,3.40
2022-11-17T15:24:14.669Z,5.00
2022-11-17T15:26:42.901Z,1.88
2022-11-17T15:29:15.043Z,7.93
2022-11-17T15:31:43.458Z,5.05
2022-11-17T15:34:17.145Z,7.13
2022-11-17T15:36:48.387Z,10.95
2022-11-17T15:39:17.015Z,6.38
2022-11-17T15:41:45.903Z,2.38
2022-11-17T15:44:14.433Z,2.15
2022-11-17T15:46:47.229Z,3.95
2022-11-17T15:49:17.804Z,4.72
2022-11-17T15:51:46.136Z,2.05
2022-11-17T15:54:19.973Z,5.40
2022-11-17T15:56:48.607Z,5.32
2022-11-17T15:59:16.907Z,2.55
2022-11-17T16:01:45.692Z,4.47
2022-11-17T16:04:15.529Z,3.78
2022-11-17T16:06:46.904Z,7.10
2022-11-17T16:09:16.116Z,3.47
2022-11-17T16:11:44.648Z,2.08
2022-11-17T16:14:14.678Z,4.18
2022-11-17T16:16:43.642Z,5.85
2022-11-17T16:19:11.736Z,2.97
2022-11-17T16:21:39.775Z,7.03
2022-11-17T16:24:12.292Z,4.45
2022-11-17T16:26:40.380Z,3.08
2022-11-17T16:29:08.748Z,5.00
2022-11-17T16:31:37.903Z,6.55
2022-11-17T16:34:08.197Z,4.57
2022-11-17T16:36:39.848Z,3.78
2022-11-17T16:39:11.671Z,7.13
2022-11-17T16:41:41.429Z,2.47
2022-11-17T16:44:11.957Z,6.05
2022-11-17T16:46:43.193Z,4.97
2022-11-17T16:49:13.368Z,7.70
2022-11-17T16:51:42.120Z,1.85
2022-11-17T16:54:13.461Z,2.72
2022-11-17T16:56:41.884Z,5.70
2022-11-17T16:59:11.295Z,1.58
2022-11-17T17:01:39.595Z,3.75
2022-11-17T17:04:09.875Z,4.57
2022-11-17T17:06:40.572Z,6.50
2022-11-17T17:09:10.615Z,8.43
2022-11-17T17:11:40.495Z,3.90
2022-11-17T17:14:12.477Z,2.83
2022-11-17T17:16:43.366Z,3.17
2022-11-17T17:19:13.647Z,2.58
2022-11-17T17:21:43.661Z,4.32
2022-11-17T17:24:12.241Z,2.55
2022-11-17T17:26:42.214Z,4.15
2022-11-17T17:29:11.405Z,3.63
2022-11-17T17:31:41.515Z,4.93
2022-11-17T17:34:11.816Z,5.20
2022-11-17T17:36:40.181Z,5.10
2022-11-17T17:39:08.363Z,4.70
2022-11-17T17:41:43.350Z,3.85
2022-11-17T17:44:16.022Z,4.82
2022-11-17T17:46:45.047Z,4.35
2022-11-17T17:49:14.050Z,3.55
2022-11-17T17:51:44.667Z,3.75
2022-11-17T17:54:17.064Z,7.50
2022-11-17T17:56:48.321Z,5.13
2022-11-17T17:59:17.211Z,9.38
2022-11-17T18:01:55.578Z,30.33
2022-11-17T18:04:23.658Z,85.85
2022-11-17T18:06:51.927Z,57.15
2022-11-17T18:09:20.961Z,25.77
2022-11-17T18:11:51.520Z,9.65
2022-11-17T18:14:24.317Z,7.88
2022-11-17T18:16:53.698Z,25.20
2022-11-17T18:19:22.354Z,40.85
2022-11-17T18:21:50.616Z,30.88
2022-11-17T18:24:18.929Z,12.20
2022-11-17T18:26:47.190Z,9.48
2022-11-17T18:29:19.608Z,6.97
2022-11-17T18:31:49.332Z,5.70
2022-11-17T18:34:20.982Z,4.32
2022-11-17T18:36:49.960Z,4.65
2022-11-17T18:39:18.852Z,4.55
2022-11-17T18:41:47.553Z,3.63
2022-11-17T18:44:19.460Z,4.63
2022-11-17T18:46:47.968Z,9.80
2022-11-17T18:49:17.082Z,2.88
2022-11-17T18:51:45.776Z,7.30
2022-11-17T18:54:14.629Z,3.17
2022-11-17T18:56:44.547Z,6.55
2022-11-17T18:59:13.508Z,4.13
2022-11-17T19:01:44.001Z,7.53
2022-11-17T19:04:14.443Z,8.43
2022-11-17T19:06:43.019Z,7.10
2022-11-17T19:09:11.553Z,10.70
2022-11-17T19:11:39.750Z,6.53
2022-11-17T19:14:08.054Z,4.00
2022-11-17T19:16:44.466Z,4.85
2022-11-17T19:19:15.275Z,3.60
2022-11-17T19:21:44.318Z,3.47
2022-11-17T19:24:12.759Z,3.70
2022-11-17T19:26:41.175Z,7.70
2022-11-17T19:29:16.764Z,7.78
2022-11-17T19:31:46.095Z,4.80
2022-11-17T19:34:15.926Z,7.80
2022-11-17T19:36:44.386Z,4.95
2022-11-17T19:39:13.733Z,4.68
2022-11-17T19:41:43.531Z,5.15
2022-11-17T19:44:11.924Z,8.50
2022-11-17T19:46:42.536Z,4.53
2022-11-17T19:49:13.141Z,5.35
2022-11-17T19:51:42.749Z,6.82
2022-11-17T19:54:12.741Z,5.82
2022-11-17T19:56:41.566Z,6.25
2022-11-17T19:59:16.129Z,9.25
2022-11-17T20:01:46.402Z,5.55
2022-11-17T20:04:15.161Z,4.97
2022-11-17T20:06:45.224Z,7.82
2022-11-17T20:09:15.528Z,10.43
2022-11-17T20:11:44.748Z,6.63
2022-11-17T20:14:14.331Z,7.95
2022-11-17T20:16:43.120Z,12.57
2022-11-17T20:19:13.552Z,13.00
2022-11-17T20:21:42.154Z,10.75
2022-11-17T20:24:12.165Z,10.32
2022-11-17T20:26:43.040Z,8.90
2022-11-17T20:29:11.519Z,9.88
2022-11-17T20:31:40.163Z,4.40
2022-11-17T20:34:09.154Z,7.10
2022-11-17T20:36:37.420Z,6.25
2022-11-17T20:39:07.735Z,6.25
2022-11-17T20:41:37.621Z,4.93
2022-11-17T20:44:23.519Z,8.25
2022-11-17T20:46:52.776Z,4.93
2022-11-17T20:49:21.552Z,11.15
2022-11-17T20:51:49.786Z,8.55
2022-11-17T20:54:18.201Z,7.63
2022-11-17T20:56:47.673Z,4.85
2022-11-17T20:59:19.979Z,3.88
2022-11-17T21:01:49.190Z,7.78
2022-11-17T21:04:17.329Z,21.10
2022-11-17T21:06:45.404Z,9.43
2022-11-17T21:09:13.944Z,6.20
2022-11-17T21:11:57.469Z,3.17
2022-11-17T21:14:27.997Z,8.40
2022-11-17T21:16:57.545Z,4.85
2022-11-17T21:19:25.961Z,10.35
2022-11-17T21:21:54.598Z,6.13
2022-11-17T21:24:23.960Z,3.95
2022-11-17T21:26:53.384Z,6.10
2022-11-17T21:29:21.902Z,10.25
2022-11-17T21:31:51.535Z,3.60
2022-11-17T21:34:19.684Z,5.85
2022-11-17T21:36:47.755Z,3.45
2022-11-17T21:39:18.678Z,8.02
2022-11-17T21:41:46.952Z,5.03
2022-11-17T21:44:15.250Z,4.82
2022-11-17T21:46:43.569Z,3.65
2022-11-17T21:49:13.167Z,9.50
2022-11-17T21:51:41.527Z,11.52
2022-11-17T21:54:10.788Z,5.07
2022-11-17T21:56:40.173Z,5.25
2022-11-17T21:59:12.473Z,8.88
2022-11-17T22:01:41.370Z,5.70
2022-11-17T22:04:09.641Z,6.35
2022-11-17T22:06:39.688Z,2.63
2022-11-17T22:09:07.866Z,5.93
2022-11-17T22:11:36.534Z,2.55
2022-11-17T22:14:06.631Z,3.70
2022-11-17T22:16:35.940Z,4.95
2022-11-17T22:19:04.912Z,3.88
2022-11-17T22:21:32.995Z,5.53
2022-11-17T22:24:02.470Z,5.97
2022-11-17T22:26:31.558Z,10.75
2022-11-17T22:29:00.198Z,7.35
2022-11-17T22:31:28.440Z,5.68
2022-11-17T22:33:56.731Z,4.88
2022-11-17T22:36:25.150Z,4.88
2022-11-17T22:38:53.932Z,10.95
2022-11-17T22:41:24.763Z,7.88
2022-11-17T22:43:53.881Z,7.95
2022-11-17T22:46:24.445Z,8.07
2022-11-17T22:48:53.226Z,7.75
2022-11-17T22:51:35.529Z,9.07
2022-11-17T22:54:03.813Z,11.18
2022-11-17T22:56:33.660Z,9.45
2022-11-17T22:59:02.466Z,7.18
2022-11-17T23:01:30.856Z,13.07
2022-11-17T23:03:59.241Z,19.65
2022-11-17T23:06:28.437Z,30.38
2022-11-17T23:08:58.171Z,61.60
2022-11-17T23:11:36.930Z,36.35
2022-11-17T23:14:08.974Z,18.83
2022-11-17T23:16:37.955Z,16.17
2022-11-17T23:19:06.880Z,12.40
2022-11-17T23:21:35.196Z,21.90
2022-11-17T23:24:04.469Z,22.52
2022-11-17T23:26:32.768Z,20.75
2022-11-17T23:29:01.157Z,22.75
2022-11-17T23:31:30.848Z,22.60
2022-11-17T23:33:59.053Z,17.27
2022-11-17T23:36:27.169Z,19.92
2022-11-17T23:38:56.872Z,20.45
2022-11-17T23:41:25.140Z,15.60
2022-11-17T23:43:54.549Z,15.68
2022-11-17T23:46:24.544Z,17.20
2022-11-17T23:48:55.103Z,23.27
2022-11-17T23:51:25.206Z,14.63
2022-11-17T23:53:53.960Z,16.48
2022-11-17T23:56:22.523Z,16.48
2022-11-17T23:58:51.228Z,14.10
